createdAt,value
2018-04-26T00:01:04.583Z,287.03
2018-04-26T00:03:32.089Z,271.07
2018-04-26T00:06:00.357Z,259.83
2018-04-26T00:08:28.855Z,250.23
2018-04-26T00:10:56.964Z,241.67
2018-04-26T00:13:24.704Z,206.37
2018-04-26T00:15:52.725Z,190.03
2018-04-26T00:18:20.752Z,194.80
2018-04-26T00:20:48.482Z,180.37
2018-04-26T00:23:17.072Z,180.93
2018-04-26T00:25:44.637Z,172.40
2018-04-26T00:28:12.165Z,172.60
2018-04-26T00:30:39.866Z,167.43
2018-04-26T00:33:07.614Z,159.03
2018-04-26T00:35:35.210Z,156.63
2018-04-26T00:38:02.761Z,151.57
2018-04-26T00:40:31.428Z,143.40
2018-04-26T00:42:58.936Z,150.60
2018-04-26T00:45:26.714Z,150.83
2018-04-26T00:47:55.333Z,142.43
2018-04-26T00:50:22.859Z,153.03
2018-04-26T00:52:51.569Z,141.17
2018-04-26T00:55:19.095Z,141.80
2018-04-26T00:57:46.785Z,132.20
2018-04-26T01:00:14.647Z,137.63
2018-04-26T01:02:42.200Z,128.47
2018-04-26T01:05:09.759Z,129.27
2018-04-26T01:07:37.583Z,125.97
2018-04-26T01:10:05.068Z,132.87
2018-04-26T01:12:33.155Z,34.83
2018-04-26T01:15:00.715Z,34.73
2018-04-26T01:17:28.699Z,33.30
2018-04-26T01:19:57.512Z,34.73
2018-04-26T01:22:25.076Z,31.73
2018-04-26T01:24:52.766Z,32.27
2018-04-26T01:27:20.420Z,30.97
2018-04-26T01:29:47.933Z,30.43
2018-04-26T01:32:16.614Z,29.57
2018-04-26T01:34:44.431Z,28.43
2018-04-26T01:37:12.791Z,28.90
2018-04-26T01:39:40.778Z,26.20
2018-04-26T01:42:08.703Z,26.07
2018-04-26T01:44:36.224Z,25.97
2018-04-26T01:47:04.551Z,24.93
2018-04-26T01:49:32.114Z,26.40
2018-04-26T01:51:59.869Z,23.80
2018-04-26T01:54:27.447Z,24.53
2018-04-26T01:56:55.099Z,24.53
2018-04-26T01:59:23.159Z,23.80
2018-04-26T02:01:51.860Z,23.47
2018-04-26T02:04:19.518Z,24.57
2018-04-26T02:06:48.901Z,22.60
2018-04-26T02:09:16.775Z,22.10
2018-04-26T02:11:44.679Z,24.00
2018-04-26T02:14:12.423Z,24.60
2018-04-26T02:16:40.082Z,23.47
2018-04-26T02:19:08.138Z,22.73
2018-04-26T02:21:35.872Z,22.80
2018-04-26T02:24:04.282Z,21.07
2018-04-26T02:26:32.406Z,23.23
2018-04-26T02:28:59.912Z,22.37
2018-04-26T02:31:28.080Z,21.97
2018-04-26T02:33:55.631Z,21.07
2018-04-26T02:36:24.837Z,19.73
2018-04-26T02:38:53.604Z,20.10
2018-04-26T02:41:21.695Z,19.90
2018-04-26T02:43:50.226Z,18.60
2018-04-26T02:46:18.613Z,16.70
2018-04-26T02:48:46.253Z,17.77
2018-04-26T02:51:13.929Z,18.50
2018-04-26T02:53:42.488Z,16.13
2018-04-26T02:56:09.984Z,16.70
2018-04-26T02:58:38.445Z,15.83
2018-04-26T03:01:06.381Z,15.57
2018-04-26T03:03:34.765Z,16.43
2018-04-26T03:06:02.573Z,17.00
2018-04-26T03:08:31.108Z,16.80
2018-04-26T03:10:58.949Z,14.77
2018-04-26T03:13:26.516Z,17.10
2018-04-26T03:15:54.394Z,15.27
2018-04-26T03:18:22.106Z,16.90
2018-04-26T03:20:49.746Z,16.13
2018-04-26T03:23:18.247Z,16.60
2018-04-26T03:25:45.863Z,15.70
2018-04-26T03:28:13.547Z,15.30
2018-04-26T03:30:42.833Z,13.43
2018-04-26T03:33:10.901Z,15.37
2018-04-26T03:35:41.526Z,14.23
2018-04-26T03:38:09.055Z,13.80
2018-04-26T03:40:36.858Z,13.27
2018-04-26T03:43:04.336Z,12.90
2018-04-26T03:45:33.523Z,13.20
2018-04-26T03:48:01.486Z,12.53
2018-04-26T03:50:32.004Z,10.53
2018-04-26T03:52:59.572Z,11.80
2018-04-26T03:55:28.257Z,11.53
2018-04-26T03:57:57.564Z,11.23
2018-04-26T04:00:25.339Z,12.40
2018-04-26T04:02:52.953Z,12.07
2018-04-26T04:05:20.550Z,14.73
2018-04-26T04:07:49.918Z,11.27
2018-04-26T04:10:17.911Z,10.70
2018-04-26T04:12:45.597Z,11.43
2018-04-26T04:15:13.219Z,11.77
2018-04-26T04:17:40.804Z,12.17
2018-04-26T04:20:08.261Z,12.23
2018-04-26T04:22:36.113Z,10.40
2018-04-26T04:25:03.652Z,11.87
2018-04-26T04:27:33.090Z,11.53
2018-04-26T04:30:00.644Z,11.57
2018-04-26T04:32:28.496Z,11.60
2018-04-26T04:34:55.979Z,11.10
2018-04-26T04:37:23.430Z,11.00
2018-04-26T04:39:51.179Z,11.80
2018-04-26T04:42:19.886Z,10.77
2018-04-26T04:44:47.601Z,11.07
2018-04-26T04:47:15.151Z,10.87
2018-04-26T04:49:44.363Z,11.07
2018-04-26T04:52:12.719Z,12.43
2018-04-26T04:54:40.195Z,11.87
2018-04-26T04:57:08.173Z,13.00
2018-04-26T04:59:35.968Z,10.53
2018-04-26T05:02:04.767Z,11.30
2018-04-26T05:04:33.949Z,12.17
2018-04-26T05:07:01.821Z,13.80
2018-04-26T05:09:30.574Z,10.40
2018-04-26T05:11:58.520Z,9.80
2018-04-26T05:14:27.277Z,10.30
2018-04-26T05:16:57.947Z,12.37
2018-04-26T05:19:28.896Z,10.97
2018-04-26T05:21:56.535Z,10.70
2018-04-26T05:24:24.048Z,10.27
2018-04-26T05:26:52.934Z,11.80
2018-04-26T05:29:21.896Z,11.13
2018-04-26T05:31:49.583Z,9.93
2018-04-26T05:34:17.525Z,10.87
2018-04-26T05:36:45.546Z,11.33
2018-04-26T05:41:39.124Z,9.90
2018-04-26T05:44:07.558Z,10.87
2018-04-26T05:46:35.338Z,10.10
2018-04-26T05:49:03.532Z,9.93
2018-04-26T05:51:31.153Z,10.33
2018-04-26T05:53:59.454Z,9.50
2018-04-26T05:56:27.551Z,10.17
2018-04-26T05:58:57.123Z,9.70
2018-04-26T06:01:24.887Z,10.47
2018-04-26T06:03:53.590Z,10.13
2018-04-26T06:06:21.105Z,10.20
2018-04-26T06:08:48.655Z,9.73
2018-04-26T06:11:16.537Z,8.93
2018-04-26T06:13:44.009Z,10.23
2018-04-26T06:16:11.767Z,10.40
2018-04-26T06:18:39.471Z,9.67
2018-04-26T06:21:07.107Z,10.10
2018-04-26T06:23:35.719Z,9.33
2018-04-26T06:26:03.314Z,10.93
2018-04-26T06:28:31.029Z,9.83
2018-04-26T06:30:59.522Z,10.67
2018-04-26T06:33:27.483Z,9.47
2018-04-26T06:35:55.080Z,9.57
2018-04-26T06:38:23.024Z,9.93
2018-04-26T06:40:50.756Z,10.90
2018-04-26T06:43:19.469Z,9.77
2018-04-26T06:45:47.071Z,9.57
2018-04-26T06:48:16.325Z,10.33
2018-04-26T06:50:45.021Z,9.60
2018-04-26T06:53:12.495Z,9.40
2018-04-26T06:55:40.011Z,9.63
2018-04-26T06:58:08.539Z,11.87
2018-04-26T07:00:36.225Z,9.30
2018-04-26T07:03:03.786Z,9.43
2018-04-26T07:05:32.015Z,9.73
2018-04-26T07:07:59.510Z,9.63
2018-04-26T07:10:27.292Z,9.07
2018-04-26T07:12:54.865Z,10.80
2018-04-26T07:15:22.432Z,10.37
2018-04-26T07:17:50.297Z,9.73
2018-04-26T07:20:17.991Z,10.37
2018-04-26T07:22:45.488Z,9.67
2018-04-26T07:25:13.084Z,9.20
2018-04-26T07:27:40.969Z,11.03
2018-04-26T07:30:08.414Z,10.17
2018-04-26T07:32:36.730Z,9.67
2018-04-26T07:35:04.310Z,10.00
2018-04-26T07:37:31.754Z,9.57
2018-04-26T07:39:59.273Z,11.07
2018-04-26T07:42:26.765Z,8.50
2018-04-26T07:44:54.218Z,9.13
2018-04-26T07:47:21.678Z,10.13
2018-04-26T07:49:49.457Z,9.97
2018-04-26T07:52:17.006Z,9.53
2018-04-26T07:54:44.521Z,9.97
2018-04-26T07:57:13.005Z,11.00
2018-04-26T07:59:41.493Z,10.40
2018-04-26T08:02:09.648Z,9.67
2018-04-26T08:04:37.906Z,10.33
2018-04-26T08:07:06.908Z,8.97
2018-04-26T08:09:34.340Z,9.47
2018-04-26T08:12:01.815Z,10.40
2018-04-26T08:14:29.325Z,10.97
2018-04-26T08:16:57.810Z,10.87
2018-04-26T08:19:25.283Z,9.93
2018-04-26T08:21:52.835Z,10.90
2018-04-26T08:24:20.311Z,8.67
2018-04-26T08:26:47.843Z,10.17
2018-04-26T08:29:16.275Z,9.90
2018-04-26T08:31:43.832Z,9.47
2018-04-26T08:34:12.327Z,9.30
2018-04-26T08:36:40.724Z,10.10
2018-04-26T08:39:08.257Z,9.90
2018-04-26T08:41:35.697Z,9.90
2018-04-26T08:44:03.311Z,9.03
2018-04-26T08:46:31.157Z,10.20
2018-04-26T08:48:58.687Z,10.00
2018-04-26T08:51:26.915Z,9.37
2018-04-26T08:53:54.502Z,9.43
2018-04-26T08:56:21.967Z,10.50
2018-04-26T08:58:49.510Z,10.00
2018-04-26T09:01:17.042Z,9.77
2018-04-26T09:03:45.862Z,8.90
2018-04-26T09:06:13.342Z,9.50
2018-04-26T09:08:41.686Z,10.43
2018-04-26T09:11:09.429Z,11.30
2018-04-26T09:13:37.186Z,14.63
2018-04-26T09:16:05.151Z,10.23
2018-04-26T09:18:33.004Z,10.50
2018-04-26T09:21:01.004Z,11.10
2018-04-26T09:23:28.583Z,9.40
2018-04-26T09:25:56.105Z,10.93
2018-04-26T09:28:23.610Z,9.23
2018-04-26T09:30:51.432Z,10.77
2018-04-26T09:33:19.206Z,10.17
2018-04-26T09:35:46.696Z,10.53
2018-04-26T09:38:14.128Z,10.57
2018-04-26T09:40:42.189Z,11.80
2018-04-26T09:43:09.793Z,10.03
2018-04-26T09:45:37.810Z,11.60
2018-04-26T09:48:05.784Z,10.70
2018-04-26T09:50:33.386Z,10.60
2018-04-26T09:53:01.071Z,11.07
2018-04-26T09:55:29.638Z,9.60
2018-04-26T09:57:57.175Z,9.23
2018-04-26T10:00:25.696Z,10.80
2018-04-26T10:02:55.197Z,10.47
2018-04-26T10:05:23.842Z,9.87
2018-04-26T10:07:51.692Z,9.27
2018-04-26T10:10:20.176Z,9.87
2018-04-26T10:12:47.750Z,9.23
2018-04-26T10:15:16.465Z,11.00
2018-04-26T10:17:43.929Z,10.70
2018-04-26T10:20:12.449Z,10.53
2018-04-26T10:22:40.134Z,10.77
2018-04-26T10:25:07.611Z,9.40
2018-04-26T10:27:35.059Z,10.83
2018-04-26T10:30:04.157Z,10.87
2018-04-26T10:32:31.756Z,11.17
2018-04-26T10:34:59.291Z,10.23
2018-04-26T10:37:27.929Z,9.40
2018-04-26T10:39:55.606Z,10.53
2018-04-26T10:42:23.896Z,10.67
2018-04-26T10:44:51.436Z,10.90
2018-04-26T10:47:19.048Z,12.30
2018-04-26T10:49:47.390Z,16.07
2018-04-26T10:52:14.903Z,84.93
2018-04-26T10:54:42.371Z,84.97
2018-04-26T10:57:10.617Z,82.70
2018-04-26T10:59:38.203Z,78.30
2018-04-26T11:02:05.880Z,8.87
2018-04-26T11:04:33.495Z,9.40
2018-04-26T11:07:01.826Z,9.23
2018-04-26T11:09:29.809Z,8.87
2018-04-26T11:11:57.320Z,9.67
2018-04-26T11:14:24.841Z,8.37
2018-04-26T11:16:52.393Z,9.53
2018-04-26T11:19:19.867Z,9.80
2018-04-26T11:21:48.402Z,9.50
2018-04-26T11:24:15.959Z,9.87
2018-04-26T11:26:43.508Z,9.20
2018-04-26T11:29:11.361Z,16.30
2018-04-26T11:31:39.942Z,9.33
2018-04-26T11:34:07.920Z,10.60
2018-04-26T11:36:35.491Z,10.47
2018-04-26T11:39:03.153Z,13.33
2018-04-26T11:41:31.028Z,13.23
2018-04-26T11:43:58.514Z,11.03
2018-04-26T11:46:26.142Z,11.63
2018-04-26T11:48:54.018Z,9.90
2018-04-26T11:51:21.889Z,10.20
2018-04-26T11:53:49.492Z,10.87
2018-04-26T11:56:17.072Z,10.93
2018-04-26T11:58:44.621Z,10.37
2018-04-26T12:01:12.200Z,10.10
2018-04-26T12:03:40.122Z,11.17
2018-04-26T12:06:07.852Z,10.20
2018-04-26T12:08:36.107Z,13.83
2018-04-26T12:11:04.311Z,14.73
2018-04-26T12:13:32.195Z,16.10
2018-04-26T12:15:59.816Z,18.40
2018-04-26T12:18:28.543Z,17.40
2018-04-26T12:20:56.976Z,18.60
2018-04-26T12:23:24.621Z,17.47
2018-04-26T12:25:52.124Z,19.53
2018-04-26T12:28:19.909Z,18.57
2018-04-26T12:30:47.651Z,19.30
2018-04-26T12:33:15.349Z,25.70
2018-04-26T12:35:43.017Z,19.77
2018-04-26T12:38:11.277Z,17.47
2018-04-26T12:40:38.817Z,21.67
2018-04-26T12:43:06.393Z,20.97
2018-04-26T12:45:34.237Z,27.17
2018-04-26T12:48:01.715Z,21.70
2018-04-26T12:50:30.056Z,27.53
2018-04-26T12:52:57.912Z,19.30
2018-04-26T12:55:25.488Z,28.47
2018-04-26T12:57:53.443Z,16.83
2018-04-26T13:00:21.022Z,24.37
2018-04-26T13:02:48.593Z,21.13
2018-04-26T13:05:17.266Z,22.10
2018-04-26T13:07:44.960Z,17.40
2018-04-26T13:10:12.783Z,20.20
2018-04-26T13:12:40.320Z,15.70
2018-04-26T13:15:08.040Z,18.00
2018-04-26T13:17:35.640Z,18.70
2018-04-26T13:20:03.204Z,15.90
2018-04-26T13:22:30.730Z,21.80
2018-04-26T13:24:58.317Z,21.10
2018-04-26T13:27:27.482Z,15.60
2018-04-26T13:29:55.490Z,20.20
2018-04-26T13:32:23.579Z,18.20
2018-04-26T13:34:51.347Z,16.53
2018-04-26T13:37:18.932Z,15.80
2018-04-26T13:39:46.477Z,15.87
2018-04-26T13:42:13.944Z,15.50
2018-04-26T13:44:42.228Z,14.17
2018-04-26T13:47:09.788Z,12.93
2018-04-26T13:49:37.426Z,14.13
2018-04-26T13:52:06.162Z,12.70
2018-04-26T13:54:34.000Z,15.73
2018-04-26T13:57:01.653Z,17.20
2018-04-26T13:59:29.177Z,13.83
2018-04-26T14:01:57.415Z,12.13
2018-04-26T14:04:25.804Z,12.63
2018-04-26T14:06:54.235Z,13.33
2018-04-26T14:09:22.218Z,14.13
2018-04-26T14:11:49.777Z,12.83
2018-04-26T14:14:17.283Z,15.50
2018-04-26T14:16:44.755Z,18.90
2018-04-26T14:19:12.297Z,77.47
2018-04-26T14:21:40.023Z,30.43
2018-04-26T14:24:07.620Z,26.47
2018-04-26T14:26:35.318Z,29.13
2018-04-26T14:29:03.032Z,28.03
2018-04-26T14:31:30.535Z,27.03
2018-04-26T14:33:58.052Z,27.90
2018-04-26T14:36:25.516Z,26.90
2018-04-26T14:38:53.337Z,26.60
2018-04-26T14:41:20.974Z,26.37
2018-04-26T14:43:48.449Z,26.63
2018-04-26T14:46:16.780Z,26.23
2018-04-26T14:48:44.261Z,25.77
2018-04-26T14:51:12.695Z,23.77
2018-04-26T14:53:40.378Z,24.40
2018-04-26T14:56:07.876Z,23.43
2018-04-26T14:58:35.434Z,22.63
2018-04-26T15:01:03.022Z,24.30
2018-04-26T15:03:30.787Z,23.13
2018-04-26T15:05:58.260Z,24.07
2018-04-26T15:08:25.862Z,24.20
2018-04-26T15:10:54.102Z,62.27
2018-04-26T15:13:21.938Z,28.00
2018-04-26T15:15:49.604Z,26.07
2018-04-26T15:18:17.373Z,24.03
2018-04-26T15:20:45.956Z,22.33
2018-04-26T15:23:13.524Z,24.13
2018-04-26T15:25:42.508Z,23.90
2018-04-26T15:28:10.144Z,25.27
2018-04-26T15:30:37.636Z,24.87
2018-04-26T15:33:05.482Z,22.97
2018-04-26T15:35:33.046Z,23.20
2018-04-26T15:38:00.567Z,21.87
2018-04-26T15:40:28.854Z,21.77
2018-04-26T15:42:57.372Z,21.33
2018-04-26T15:45:25.065Z,22.97
2018-04-26T15:47:54.365Z,21.90
2018-04-26T15:50:21.913Z,20.50
2018-04-26T15:52:49.454Z,21.47
2018-04-26T15:55:17.146Z,21.00
2018-04-26T15:57:44.653Z,20.60
2018-04-26T16:00:12.213Z,20.30
2018-04-26T16:02:40.816Z,20.17
2018-04-26T16:05:08.437Z,20.53
2018-04-26T16:07:36.714Z,21.40
2018-04-26T16:10:04.227Z,19.30
2018-04-26T16:12:32.729Z,19.37
2018-04-26T16:15:00.246Z,20.93
2018-04-26T16:17:28.830Z,18.33
2018-04-26T16:19:56.473Z,18.07
2018-04-26T16:22:24.007Z,19.10
2018-04-26T16:24:52.277Z,19.53
2018-04-26T16:27:19.813Z,18.33
2018-04-26T16:29:47.338Z,19.53
2018-04-26T16:32:15.610Z,19.50
2018-04-26T16:34:43.151Z,19.13
2018-04-26T16:37:11.386Z,17.97
2018-04-26T16:39:39.013Z,18.17
2018-04-26T16:42:06.516Z,17.23
2018-04-26T16:44:33.952Z,16.90
2018-04-26T16:47:01.497Z,16.70
2018-04-26T16:49:28.991Z,17.17
2018-04-26T16:51:56.812Z,15.90
2018-04-26T16:54:25.236Z,16.87
2018-04-26T16:56:54.391Z,15.00
2018-04-26T16:59:22.254Z,18.20
2018-04-26T17:01:49.813Z,17.40
2018-04-26T17:04:18.107Z,17.70
2018-04-26T17:06:45.730Z,17.30
2018-04-26T17:09:13.350Z,15.73
2018-04-26T17:11:40.919Z,16.37
2018-04-26T17:14:09.341Z,16.90
2018-04-26T17:16:36.952Z,15.20
2018-04-26T17:19:04.748Z,15.63
2018-04-26T17:21:33.367Z,15.57
2018-04-26T17:24:01.754Z,15.33
2018-04-26T17:26:29.224Z,15.73
2018-04-26T17:28:56.963Z,15.80
2018-04-26T17:31:25.241Z,12.97
2018-04-26T17:33:53.580Z,14.87
2018-04-26T17:36:21.091Z,14.00
2018-04-26T17:38:48.647Z,12.30
2018-04-26T17:41:16.131Z,13.10
2018-04-26T17:43:44.284Z,12.80
2018-04-26T17:46:12.482Z,13.30
2018-04-26T17:48:40.799Z,14.20
2018-04-26T17:51:09.122Z,13.73
2018-04-26T17:53:36.664Z,14.20
2018-04-26T17:56:04.152Z,12.60
2018-04-26T17:58:31.697Z,14.00
2018-04-26T18:00:59.348Z,12.43
2018-04-26T18:03:26.985Z,11.60
2018-04-26T18:05:54.772Z,13.87
2018-04-26T18:08:22.733Z,11.17
2018-04-26T18:10:50.341Z,12.10
2018-04-26T18:13:17.961Z,12.70
2018-04-26T18:15:45.611Z,12.27
2018-04-26T18:18:13.313Z,11.90
2018-04-26T18:20:40.862Z,11.47
2018-04-26T18:23:08.816Z,11.43
2018-04-26T18:25:36.853Z,11.37
2018-04-26T18:28:04.618Z,12.70
2018-04-26T18:30:32.284Z,11.37
2018-04-26T18:33:00.620Z,12.90
2018-04-26T18:35:28.210Z,12.37
2018-04-26T18:37:55.838Z,11.40
2018-04-26T18:40:23.975Z,11.00
2018-04-26T18:42:51.697Z,13.27
2018-04-26T18:45:20.533Z,10.67
2018-04-26T18:47:48.374Z,10.67
2018-04-26T18:50:16.003Z,10.80
2018-04-26T18:52:44.101Z,10.40
2018-04-26T18:55:11.613Z,10.50
2018-04-26T18:57:39.569Z,11.10
2018-04-26T19:00:07.242Z,11.50
2018-04-26T19:02:37.026Z,10.17
2018-04-26T19:05:05.324Z,10.67
2018-04-26T19:07:33.066Z,9.87
2018-04-26T19:10:04.522Z,10.10
2018-04-26T19:12:32.141Z,10.10
2018-04-26T19:15:00.207Z,11.20
2018-04-26T19:17:31.423Z,9.80
2018-04-26T19:20:00.190Z,10.20
2018-04-26T19:22:29.726Z,10.53
2018-04-26T19:24:57.505Z,12.57
2018-04-26T19:27:25.750Z,9.87
2018-04-26T19:29:53.285Z,11.23
2018-04-26T19:32:20.835Z,10.33
2018-04-26T19:34:48.619Z,10.23
2018-04-26T19:37:17.357Z,12.60
2018-04-26T19:39:45.188Z,10.50
2018-04-26T19:42:13.124Z,10.87
2018-04-26T19:44:40.705Z,11.43
2018-04-26T19:47:08.666Z,8.93
2018-04-26T19:49:37.024Z,9.33
2018-04-26T19:52:06.765Z,9.40
2018-04-26T19:54:34.618Z,8.67
2018-04-26T19:57:02.216Z,7.60
2018-04-26T19:59:29.801Z,7.80
2018-04-26T20:01:58.435Z,9.00
2018-04-26T20:04:26.024Z,9.47
2018-04-26T20:06:53.856Z,7.43
2018-04-26T20:09:21.487Z,8.53
2018-04-26T20:11:49.745Z,9.73
2018-04-26T20:14:17.296Z,9.03
2018-04-26T20:16:45.591Z,8.43
2018-04-26T20:19:13.710Z,8.70
2018-04-26T20:21:41.222Z,9.57
2018-04-26T20:24:08.944Z,7.33
2018-04-26T20:26:36.539Z,9.13
2018-04-26T20:29:04.182Z,8.37
2018-04-26T20:31:32.156Z,7.50
2018-04-26T20:34:00.903Z,7.93
2018-04-26T20:36:28.545Z,9.30
2018-04-26T20:38:56.898Z,7.93
2018-04-26T20:41:25.274Z,8.50
2018-04-26T20:43:53.713Z,7.77
2018-04-26T20:46:21.363Z,7.60
2018-04-26T20:48:48.883Z,7.43
2018-04-26T20:51:16.364Z,7.77
2018-04-26T20:53:44.680Z,8.73
2018-04-26T20:56:12.277Z,7.77
2018-04-26T20:58:40.907Z,7.97
2018-04-26T21:01:08.967Z,7.90
2018-04-26T21:03:37.468Z,7.80
2018-04-26T21:06:05.705Z,9.37
2018-04-26T21:08:33.806Z,7.30
2018-04-26T21:11:01.356Z,7.23
2018-04-26T21:13:28.928Z,7.73
2018-04-26T21:15:56.420Z,7.53
2018-04-26T21:18:24.025Z,6.80
2018-04-26T21:20:51.555Z,7.10
2018-04-26T21:23:19.072Z,7.67
2018-04-26T21:25:46.879Z,9.07
2018-04-26T21:28:14.589Z,7.33
2018-04-26T21:30:42.238Z,6.17
2018-04-26T21:33:10.015Z,7.10
2018-04-26T21:35:38.283Z,6.43
2018-04-26T21:38:05.822Z,6.30
2018-04-26T21:40:33.324Z,6.67
2018-04-26T21:43:01.189Z,7.50
2018-04-26T21:45:28.697Z,6.77
2018-04-26T21:47:56.964Z,7.40
2018-04-26T21:50:24.552Z,6.97
2018-04-26T21:52:52.333Z,8.40
2018-04-26T21:55:20.355Z,9.57
2018-04-26T21:57:48.279Z,6.60
2018-04-26T22:00:15.943Z,6.43
2018-04-26T22:02:44.614Z,8.57
2018-04-26T22:05:12.696Z,7.10
2018-04-26T22:07:40.515Z,7.57
2018-04-26T22:10:08.154Z,76.90
2018-04-26T22:12:36.189Z,77.77
2018-04-26T22:15:04.783Z,77.73
2018-04-26T22:17:32.708Z,71.17
2018-04-26T22:20:00.564Z,71.30
2018-04-26T22:22:28.279Z,93.43
2018-04-26T22:24:55.991Z,87.40
2018-04-26T22:27:23.657Z,88.03
2018-04-26T22:29:51.411Z,96.07
2018-04-26T22:32:20.813Z,95.20
2018-04-26T22:34:48.481Z,96.43
2018-04-26T22:37:16.841Z,97.87
2018-04-26T22:39:44.688Z,96.77
2018-04-26T22:42:12.235Z,93.43
2018-04-26T22:44:39.842Z,91.77
2018-04-26T22:47:08.548Z,87.90
2018-04-26T22:49:36.241Z,88.47
2018-04-26T22:52:03.804Z,87.97
2018-04-26T22:54:31.583Z,84.23
2018-04-26T22:57:00.004Z,87.60
2018-04-26T22:59:27.595Z,91.90
2018-04-26T23:01:56.199Z,92.00
2018-04-26T23:04:24.706Z,88.53
2018-04-26T23:06:52.304Z,90.23
2018-04-26T23:09:20.648Z,91.67
2018-04-26T23:11:48.492Z,93.50
2018-04-26T23:14:16.202Z,91.10
2018-04-26T23:16:44.411Z,92.67
2018-04-26T23:19:12.200Z,93.67
2018-04-26T23:21:39.937Z,96.77
2018-04-26T23:24:08.019Z,97.30
2018-04-26T23:26:35.656Z,96.20
2018-04-26T23:29:04.108Z,94.60
2018-04-26T23:31:31.944Z,86.17
2018-04-26T23:33:59.600Z,86.07
2018-04-26T23:36:27.340Z,95.57
2018-04-26T23:38:54.934Z,95.37
2018-04-26T23:41:22.658Z,88.27
2018-04-26T23:43:50.210Z,94.07
2018-04-26T23:46:17.804Z,89.50
2018-04-26T23:48:48.534Z,90.30
2018-04-26T23:51:17.170Z,90.43
2018-04-26T23:53:44.888Z,89.93
2018-04-26T23:56:12.512Z,86.30
2018-04-26T23:58:40.774Z,7.30
